createdAt,value
2016-02-19T00:02:13.271Z,1
2016-02-19T00:05:31.216Z,1
2016-02-19T00:08:38.821Z,1
2016-02-19T00:11:40.423Z,1
2016-02-19T00:14:52.462Z,1
2016-02-19T00:18:04.689Z,1
2016-02-19T00:21:17.212Z,1
2016-02-19T00:24:35.861Z,1
2016-02-19T00:27:38.073Z,1
2016-02-19T00:30:47.978Z,1
2016-02-19T00:33:57.861Z,1
2016-02-19T00:37:08.259Z,1
2016-02-19T00:40:21.486Z,1
2016-02-19T00:43:34.650Z,1
2016-02-19T00:46:44.114Z,1
2016-02-19T00:49:57.216Z,1
2016-02-19T00:53:08.693Z,1
2016-02-19T00:56:21.810Z,1
2016-02-19T00:59:34.787Z,1
2016-02-19T01:02:46.892Z,1
2016-02-19T01:05:59.830Z,0
2016-02-19T01:09:09.620Z,0
2016-02-19T01:12:19.034Z,0
2016-02-19T01:15:36.229Z,0
2016-02-19T01:18:38.300Z,0
2016-02-19T01:21:51.218Z,0
2016-02-19T01:25:04.523Z,0
2016-02-19T01:28:17.296Z,0
2016-02-19T01:31:34.742Z,0
2016-02-19T01:34:36.858Z,0
2016-02-19T01:37:49.807Z,0
2016-02-19T01:40:59.660Z,0
2016-02-19T01:44:09.121Z,0
2016-02-19T01:47:21.910Z,0
2016-02-19T01:50:34.590Z,0
2016-02-19T01:53:47.632Z,0
2016-02-19T01:56:58.249Z,0
2016-02-19T02:00:11.069Z,0
2016-02-19T02:03:30.343Z,0
2016-02-19T02:06:38.444Z,0
2016-02-19T02:09:40.455Z,0
2016-02-19T02:12:53.558Z,0
2016-02-19T02:16:06.769Z,0
2016-02-19T02:19:17.496Z,0
2016-02-19T02:22:36.770Z,0
2016-02-19T02:25:39.245Z,0
2016-02-19T02:28:52.211Z,0
2016-02-19T02:32:03.578Z,0
2016-02-19T02:35:16.367Z,0
2016-02-19T02:38:33.390Z,0
2016-02-19T02:41:35.585Z,0
2016-02-19T02:44:45.616Z,0
2016-02-19T02:47:58.989Z,0
2016-02-19T02:51:11.654Z,0
2016-02-19T02:54:29.944Z,0
2016-02-19T02:57:37.960Z,0
2016-02-19T03:00:40.014Z,0
2016-02-19T03:03:50.057Z,0
2016-02-19T03:06:59.941Z,0
2016-02-19T03:10:13.026Z,0
2016-02-19T03:13:32.127Z,0
2016-02-19T03:16:34.214Z,0
2016-02-19T03:19:44.928Z,0
2016-02-19T03:22:57.779Z,0
2016-02-19T03:26:10.147Z,0
2016-02-19T03:29:22.920Z,0
2016-02-19T03:32:34.586Z,0
2016-02-19T03:35:47.174Z,0
2016-02-19T03:39:00.167Z,0
2016-02-19T03:42:13.065Z,0
2016-02-19T03:45:29.932Z,0
2016-02-19T03:48:38.066Z,0
2016-02-19T03:51:39.996Z,0
2016-02-19T03:54:49.756Z,0
2016-02-19T03:58:02.734Z,0
2016-02-19T04:01:15.711Z,0
2016-02-19T04:04:34.781Z,0
2016-02-19T04:07:39.664Z,0
2016-02-19T04:10:47.440Z,0
2016-02-19T04:14:00.089Z,0
2016-02-19T04:17:10.352Z,0
2016-02-19T04:20:23.110Z,0
2016-02-19T04:23:35.603Z,0
2016-02-19T04:26:44.456Z,0
2016-02-19T04:29:54.418Z,0
2016-02-19T04:33:05.239Z,0
2016-02-19T04:36:18.013Z,0
2016-02-19T04:39:36.707Z,0
2016-02-19T04:42:38.435Z,0
2016-02-19T04:45:51.243Z,0
2016-02-19T04:49:03.797Z,0
2016-02-19T04:52:16.384Z,0
2016-02-19T04:55:34.766Z,0
2016-02-19T04:58:36.572Z,0
2016-02-19T05:01:47.441Z,0
2016-02-19T05:04:58.261Z,0
2016-02-19T05:08:09.005Z,0
2016-02-19T05:11:18.841Z,0
2016-02-19T05:14:37.661Z,0
2016-02-19T05:17:39.498Z,0
2016-02-19T05:20:52.322Z,0
2016-02-19T05:24:02.345Z,0
2016-02-19T05:27:15.200Z,0
2016-02-19T05:30:31.551Z,0
2016-02-19T05:33:39.412Z,0
2016-02-19T05:36:41.368Z,0
2016-02-19T05:39:53.813Z,0
2016-02-19T05:43:06.290Z,0
2016-02-19T05:46:19.330Z,0
2016-02-19T05:49:38.134Z,1
2016-02-19T05:52:39.861Z,3
2016-02-19T05:55:49.935Z,5
2016-02-19T05:58:59.818Z,7
2016-02-19T06:02:09.701Z,12
2016-02-19T06:05:20.927Z,18
2016-02-19T06:08:37.989Z,26
2016-02-19T06:11:39.764Z,35
2016-02-19T06:14:52.539Z,46
2016-02-19T06:18:04.814Z,57
2016-02-19T06:21:17.649Z,71
2016-02-19T06:24:34.548Z,84
2016-02-19T06:27:36.290Z,104
2016-02-19T06:30:48.660Z,136
2016-02-19T06:34:01.434Z,163
2016-02-19T06:37:11.848Z,210
2016-02-19T06:40:22.420Z,283
2016-02-19T06:43:34.942Z,329
2016-02-19T06:46:47.642Z,363
2016-02-19T06:50:00.336Z,414
2016-02-19T06:53:13.376Z,466
2016-02-19T06:56:23.166Z,466
2016-02-19T06:59:35.846Z,471
2016-02-19T07:02:48.604Z,482
2016-02-19T07:05:58.979Z,556
2016-02-19T07:09:11.675Z,689
2016-02-19T07:12:30.729Z,729
2016-02-19T07:15:38.440Z,728
2016-02-19T07:18:40.276Z,732
2016-02-19T07:21:51.003Z,816
2016-02-19T07:25:01.357Z,882
2016-02-19T07:28:14.835Z,948
2016-02-19T07:31:30.796Z,1117
2016-02-19T07:34:38.710Z,1133
2016-02-19T07:37:40.515Z,1283
2016-02-19T07:40:53.320Z,1404
2016-02-19T07:44:06.097Z,1430
2016-02-19T07:47:18.386Z,1553
2016-02-19T07:50:36.627Z,1617
2016-02-19T07:53:38.449Z,1615
2016-02-19T07:56:51.019Z,1737
2016-02-19T08:00:00.593Z,1698
2016-02-19T08:03:11.804Z,1740
2016-02-19T08:06:30.567Z,1795
2016-02-19T08:09:38.497Z,2024
2016-02-19T08:12:40.364Z,2146
2016-02-19T08:15:53.263Z,2239
2016-02-19T08:19:06.038Z,2397
2016-02-19T08:22:18.704Z,2520
2016-02-19T08:25:35.290Z,2658
2016-02-19T08:28:37.407Z,2927
2016-02-19T08:31:50.181Z,3823
2016-02-19T08:35:01.239Z,4645
2016-02-19T08:38:11.747Z,4729
2016-02-19T08:41:21.989Z,4561
2016-02-19T08:44:34.794Z,4519
2016-02-19T08:47:45.427Z,4239
2016-02-19T08:50:58.344Z,3668
2016-02-19T08:54:11.430Z,3824
2016-02-19T08:57:22.673Z,3990
2016-02-19T09:00:35.587Z,3900
2016-02-19T09:03:48.485Z,4191
2016-02-19T09:07:00.871Z,4046
2016-02-19T09:10:14.004Z,3919
2016-02-19T09:13:32.872Z,4326
2016-02-19T09:16:34.989Z,4764
2016-02-19T09:19:48.044Z,6159
2016-02-19T09:22:58.711Z,7892
2016-02-19T09:26:11.672Z,7676
2016-02-19T09:29:30.977Z,7031
2016-02-19T09:32:40.063Z,6381
2016-02-19T09:35:41.118Z,6035
2016-02-19T09:38:51.893Z,6602
2016-02-19T09:42:04.840Z,6335
2016-02-19T09:45:17.833Z,6959
2016-02-19T09:48:36.841Z,6737
2016-02-19T09:51:38.958Z,7843
2016-02-19T09:54:52.202Z,10420
2016-02-19T09:58:01.790Z,12613
2016-02-19T10:01:12.970Z,12396
2016-02-19T10:04:31.149Z,10958
2016-02-19T10:07:39.721Z,10550
2016-02-19T10:10:42.384Z,9180
2016-02-19T10:13:52.956Z,9531
2016-02-19T10:17:06.200Z,9877
2016-02-19T10:20:19.630Z,9160
2016-02-19T10:23:38.998Z,8415
2016-02-19T10:26:41.584Z,7532
2016-02-19T10:29:53.716Z,8956
2016-02-19T10:33:07.072Z,9127
2016-02-19T10:36:20.501Z,10087
2016-02-19T10:39:34.009Z,9501
2016-02-19T10:42:46.909Z,8824
2016-02-19T10:45:57.544Z,8507
2016-02-19T10:49:08.520Z,8317
2016-02-19T10:52:21.889Z,8203
2016-02-19T10:55:39.162Z,7894
2016-02-19T10:58:41.654Z,7672
2016-02-19T11:01:55.085Z,7387
2016-02-19T11:05:06.485Z,7435
2016-02-19T11:08:19.650Z,7409
2016-02-19T11:11:37.251Z,7608
2016-02-19T11:14:39.791Z,7514
2016-02-19T11:17:53.003Z,7574
2016-02-19T11:21:03.888Z,7672
2016-02-19T11:24:17.146Z,7563
2016-02-19T11:27:34.482Z,7230
2016-02-19T11:30:36.849Z,6830
2016-02-19T11:33:48.310Z,6901
2016-02-19T11:36:58.994Z,6948
2016-02-19T11:40:10.002Z,6884
2016-02-19T11:43:21.697Z,6700
2016-02-19T11:46:38.768Z,6577
2016-02-19T11:49:41.182Z,6426
2016-02-19T11:52:54.455Z,6073
2016-02-19T11:56:05.904Z,6171
2016-02-19T11:59:19.380Z,5568
2016-02-19T12:02:39.013Z,4843
2016-02-19T12:05:41.460Z,4527
2016-02-19T12:08:52.265Z,4445
2016-02-19T12:12:05.104Z,4187
2016-02-19T12:15:18.284Z,3911
2016-02-19T12:18:37.479Z,3487
2016-02-19T12:21:39.768Z,3095
2016-02-19T12:24:52.900Z,3684
2016-02-19T12:28:05.927Z,4246
2016-02-19T12:31:19.044Z,3952
2016-02-19T12:34:36.646Z,3017
2016-02-19T12:37:38.890Z,3242
2016-02-19T12:40:52.148Z,3752
2016-02-19T12:44:03.689Z,3893
2016-02-19T12:47:14.181Z,3550
2016-02-19T12:50:33.205Z,3447
2016-02-19T12:53:35.541Z,3622
2016-02-19T12:56:48.299Z,3848
2016-02-19T12:59:58.307Z,4276
2016-02-19T13:03:08.802Z,4455
2016-02-19T13:06:19.623Z,4149
2016-02-19T13:09:36.021Z,3778
2016-02-19T13:12:38.233Z,3011
2016-02-19T13:15:51.303Z,2649
2016-02-19T13:19:02.017Z,2448
2016-02-19T13:22:11.978Z,1878
2016-02-19T13:25:31.143Z,2049
2016-02-19T13:28:39.432Z,2320
2016-02-19T13:31:41.565Z,3086
2016-02-19T13:34:53.089Z,2544
2016-02-19T13:38:06.396Z,2830
2016-02-19T13:41:18.515Z,2969
2016-02-19T13:44:35.772Z,3133
2016-02-19T13:47:38.061Z,3310
2016-02-19T13:50:47.820Z,3618
2016-02-19T13:54:01.002Z,3769
2016-02-19T13:57:14.416Z,3757
2016-02-19T14:00:33.487Z,3584
2016-02-19T14:03:35.651Z,3387
2016-02-19T14:06:48.738Z,3311
2016-02-19T14:10:02.373Z,3242
2016-02-19T14:13:15.444Z,3141
2016-02-19T14:16:34.656Z,3006
2016-02-19T14:19:37.085Z,2946
2016-02-19T14:22:49.968Z,2909
2016-02-19T14:26:01.008Z,2886
2016-02-19T14:29:14.089Z,2985
2016-02-19T14:32:32.771Z,2832
2016-02-19T14:35:34.890Z,2635
2016-02-19T14:38:45.046Z,2448
2016-02-19T14:41:57.846Z,2283
2016-02-19T14:45:10.729Z,1935
2016-02-19T14:48:23.861Z,1534
2016-02-19T14:51:36.665Z,1434
2016-02-19T14:54:49.126Z,1371
2016-02-19T14:58:02.184Z,1279
2016-02-19T15:01:12.458Z,1035
2016-02-19T15:04:31.294Z,1072
2016-02-19T15:07:39.521Z,955
2016-02-19T15:10:41.544Z,927
2016-02-19T15:13:54.287Z,965
2016-02-19T15:17:05.470Z,860
2016-02-19T15:20:18.430Z,799
2016-02-19T15:23:37.454Z,776
2016-02-19T15:26:39.603Z,663
2016-02-19T15:29:52.752Z,685
2016-02-19T15:33:03.966Z,646
2016-02-19T15:36:17.051Z,603
2016-02-19T15:39:36.216Z,640
2016-02-19T15:42:38.490Z,594
2016-02-19T15:45:51.435Z,558
2016-02-19T15:49:02.474Z,484
2016-02-19T15:52:15.610Z,434
2016-02-19T15:55:31.650Z,355
2016-02-19T15:58:33.861Z,288
2016-02-19T16:01:46.681Z,257
2016-02-19T16:04:59.721Z,226
2016-02-19T16:08:12.278Z,165
2016-02-19T16:11:23.005Z,118
2016-02-19T16:14:35.748Z,96
2016-02-19T16:17:47.052Z,75
2016-02-19T16:20:59.951Z,52
2016-02-19T16:24:12.728Z,41
2016-02-19T16:27:31.798Z,32
2016-02-19T16:30:33.806Z,19
2016-02-19T16:33:47.095Z,11
2016-02-19T16:37:00.463Z,7
2016-02-19T16:40:13.333Z,5
2016-02-19T16:43:30.405Z,4
2016-02-19T16:46:38.459Z,3
2016-02-19T16:49:40.513Z,2
2016-02-19T16:52:53.412Z,2
2016-02-19T16:56:05.689Z,1
2016-02-19T16:59:18.650Z,1
2016-02-19T17:02:37.845Z,1
2016-02-19T17:05:39.963Z,0
2016-02-19T17:08:52.971Z,1
2016-02-19T17:12:05.810Z,0
2016-02-19T17:15:18.747Z,1
2016-02-19T17:18:34.598Z,1
2016-02-19T17:21:36.420Z,1
2016-02-19T17:24:49.614Z,1
2016-02-19T17:28:02.763Z,1
2016-02-19T17:31:13.321Z,1
2016-02-19T17:34:32.438Z,1
2016-02-19T17:37:34.368Z,1
2016-02-19T17:40:47.361Z,1
2016-02-19T17:44:00.416Z,1
2016-02-19T17:47:12.942Z,1
2016-02-19T17:50:32.106Z,1
2016-02-19T17:53:34.131Z,1
2016-02-19T17:56:47.014Z,1
2016-02-19T17:59:57.006Z,1
2016-02-19T18:03:09.735Z,1
2016-02-19T18:06:23.024Z,1
2016-02-19T18:09:35.986Z,1
2016-02-19T18:12:48.885Z,1
2016-02-19T18:16:01.876Z,1
2016-02-19T18:19:12.309Z,1
2016-02-19T18:22:31.020Z,1
2016-02-19T18:25:39.076Z,1
2016-02-19T18:28:40.833Z,1
2016-02-19T18:31:52.264Z,1
2016-02-19T18:35:05.100Z,1
2016-02-19T18:38:16.517Z,1
2016-02-19T18:41:35.368Z,1
2016-02-19T18:44:37.362Z,1
2016-02-19T18:47:48.369Z,1
2016-02-19T18:51:00.003Z,1
2016-02-19T18:54:12.982Z,1
2016-02-19T18:57:23.772Z,1
2016-02-19T19:00:36.514Z,1
2016-02-19T19:03:49.163Z,1
2016-02-19T19:07:01.999Z,1
2016-02-19T19:10:14.915Z,1
2016-02-19T19:13:33.673Z,1
2016-02-19T19:16:35.635Z,1
2016-02-19T19:19:45.002Z,0
2016-02-19T19:22:55.589Z,0
2016-02-19T19:26:06.737Z,0
2016-02-19T19:29:19.372Z,0
2016-02-19T19:32:37.928Z,0
2016-02-19T19:35:39.670Z,0
2016-02-19T19:38:48.928Z,0
2016-02-19T19:42:01.750Z,0
2016-02-19T19:45:11.617Z,0
2016-02-19T19:48:30.190Z,0
2016-02-19T19:51:38.214Z,0
2016-02-19T19:54:40.051Z,1
2016-02-19T19:57:52.777Z,1
2016-02-19T20:01:04.362Z,1
2016-02-19T20:04:19.184Z,1
2016-02-19T20:07:35.707Z,1
2016-02-19T20:10:37.528Z,1
2016-02-19T20:13:48.505Z,1
2016-02-19T20:17:01.029Z,1
2016-02-19T20:20:13.829Z,1
2016-02-19T20:23:32.122Z,1
2016-02-19T20:26:33.879Z,1
2016-02-19T20:29:46.796Z,1
2016-02-19T20:32:59.460Z,1
2016-02-19T20:36:12.390Z,1
2016-02-19T20:39:30.352Z,1
2016-02-19T20:42:38.219Z,1
2016-02-19T20:45:40.198Z,1
2016-02-19T20:48:53.081Z,1
2016-02-19T20:52:05.777Z,1
2016-02-19T20:55:18.738Z,1
2016-02-19T20:58:35.091Z,1
2016-02-19T21:01:37.051Z,1
2016-02-19T21:04:49.859Z,1
2016-02-19T21:08:02.789Z,1
2016-02-19T21:11:15.625Z,1
2016-02-19T21:14:34.508Z,1
2016-02-19T21:17:36.423Z,1
2016-02-19T21:20:49.105Z,1
2016-02-19T21:23:59.410Z,1
2016-02-19T21:27:12.216Z,1
2016-02-19T21:30:30.958Z,1
2016-02-19T21:33:38.810Z,1
2016-02-19T21:36:40.849Z,1
2016-02-19T21:39:52.875Z,1
2016-02-19T21:43:02.836Z,1
2016-02-19T21:46:15.642Z,1
2016-02-19T21:49:34.508Z,1
2016-02-19T21:52:36.282Z,1
2016-02-19T21:55:46.825Z,1
2016-02-19T21:58:56.552Z,1
2016-02-19T22:02:08.215Z,1
2016-02-19T22:05:20.926Z,1
2016-02-19T22:08:36.512Z,1
2016-02-19T22:11:38.396Z,1
2016-02-19T22:14:51.141Z,1
2016-02-19T22:18:04.242Z,1
2016-02-19T22:21:14.673Z,1
2016-02-19T22:24:33.399Z,1
2016-02-19T22:27:35.095Z,1
2016-02-19T22:30:47.825Z,1
2016-02-19T22:34:00.474Z,1
2016-02-19T22:37:13.216Z,1
2016-02-19T22:40:32.005Z,1
2016-02-19T22:43:39.854Z,1
2016-02-19T22:46:41.628Z,1
2016-02-19T22:49:51.529Z,1
2016-02-19T22:53:03.975Z,1
2016-02-19T22:56:16.374Z,1
2016-02-19T22:59:35.006Z,1
2016-02-19T23:02:36.811Z,1
2016-02-19T23:05:48.917Z,1
2016-02-19T23:08:59.831Z,1
2016-02-19T23:12:12.433Z,1
2016-02-19T23:15:31.238Z,1
2016-02-19T23:18:38.997Z,1
2016-02-19T23:21:40.660Z,1
2016-02-19T23:24:50.812Z,1
2016-02-19T23:28:03.664Z,1
2016-02-19T23:31:14.140Z,1
2016-02-19T23:34:32.720Z,1
2016-02-19T23:37:34.362Z,1
2016-02-19T23:40:47.105Z,1
2016-02-19T23:43:59.650Z,1
2016-02-19T23:47:10.498Z,1
2016-02-19T23:50:23.191Z,1
2016-02-19T23:53:35.853Z,1
2016-02-19T23:56:48.157Z,1
